View Sortable Currents For Network
ASOSAWOSCoCoRaHSCOOPDCPISUSM
SchoolNetOtherSCANMy FavoritesBy StateRWIS
RWIS SurfaceRWIS TrafficRWIS SoilBy NWS WFOUSCRN

Current AWOS Conditions

** This page will automatically refresh every five minutes.
Sorted by: (Relative Humidity)     Click on a column to sort it.

Add ID: Name: Ob Time   Wind [knots]   Rainfall
Temp (Hi / Lo) DewP Feels RH% Dir Speed Peak Gust
@ Time
Alti Vsby Hour Today
OXVKnoxville10:15 PM 1(9/-2) 3 -10 110 80 514 @ 03:35 AM 30.41 10 0
CBFCOUNCIL BLUFFS10:15 PM 9(12/9) 7 -5 91 110 916 @ 12:55 PM 30.3 10 0
CNCCHARITON10:15 PM 3(10/-0) 1 -11 91 100 710 @ 04:35 PM 30.38 10 0
TVKCenterville10:15 PM 3(10/-0) 1 91 0 09 @ 03:55 AM 30.41 10 0
SHLSHELDON10:15 PM 1(5/-0) -2 -18 87 120 1313 @ 09:35 AM 30.29 10 0
FSWFORT MADISON10:15 PM 1(10/-2) -2 -9 87 50 48 @ 12:15 AM 30.45 10 0
I75Osceola10:15 PM 4(11/4) 1 -7 87 80 59 @ 05:15 PM 30.38 7 0
OOAOskaloosa10:15 PM -2(10/-3) -5 -17 87 70 711 @ 03:35 AM 30.43 10 0
SDASHENANDOAH MUNI10:15 PM 10(14/5) 7 -5 87 90 11G1616 @ 10:15 PM 30.34 10 0
CWICLINTON09:56 PM -6(15/-8) -9 -17 86 30 411 @ 12:25 AM 30.48 10 0
DEHDECORAH10:15 PM -6(5/-8) -9 86 0 014 @ 03:35 PM 30.42 10 0
ICLCLARINDA10:15 PM 9(12/5) 5 -3 83 100 7G1314 @ 03:35 PM 30.37 10 0
CKPCherokee10:15 PM 5(9/3) 1 -10 83 110 914 @ 12:15 PM 30.33 10 0
RDKRED OAK10:15 PM 9(14/7) 5 -6 83 100 1015 @ 02:35 PM 30.34 10 0
CINCARROLL10:15 PM 5(10/3) 1 -11 83 120 1012 @ 05:35 PM 30.36 10 0
AIOATLANTIC10:15 PM 7(12/7) 3 -7 83 100 8G1515 @ 10:15 PM 30.33 10 0
CSQCRESTON10:15 PM 5(10/3) 1 -10 83 90 912 @ 03:35 PM 30.35 10 0
FODFORT DODGE09:56 PM -2(9/-3) -6 -15 83 90 610 @ 01:00 AM 30.39 10 0 0.0001
ORCOrange City10:15 PM 5(9/3) 1 -10 83 130 916 @ 12:15 PM 30.29 10 0
DNSDENISON10:15 PM 7(12/5) 3 -9 83 110 1117 @ 08:55 PM 30.33 10 0
GGIGrinnell10:35 PM -1(7/-2) -5 -13 83 90 510 @ 03:35 AM 30.43 10 0
HNRHARLAN10:15 PM 7(12/7) 3 -8 83 110 1014 @ 09:15 AM 30.33 10 0
CCYCHARLES CITY10:15 PM -9(3/-9) -13 -20 82 70 411 @ 02:55 PM 30.43 10 0
FXYForest City10:15 PM -4(5/-6) -8 -15 82 90 47 @ 06:15 AM 30.4 10 0
PEAPELLA10:15 PM 2(12/1) -3 -6 79 80 38 @ 12:35 AM 30.43 10 0
PROPerry10:15 PM 3(9/3) -2 -12 79 100 99 @ 10:15 PM 30.38 10 0
IFAIowa Falls10:15 PM -1(9/-2) -6 -9 79 80 310 @ 02:15 AM 30.42 10 0
BNWBOONE MUNI10:15 PM 1(7/-0) -4 -15 79 80 911 @ 03:35 PM 30.37 10 0
IKVANKENY10:15 PM 1(9/-2) -4 79 @ 06:00 PM 30.43 10 0
IIBINDEPENDENCE10:15 PM -5(12/-6) -10 -19 78 70 611 @ 12:15 AM 30.44 10 0
LRJLE MARS10:15 PM 7(10/5) 1 -10 76 130 12G1919 @ 10:15 PM 30.3 10 0
ADUAUDUBON10:15 PM 7(10/5) 1 76 0 09 @ 05:55 PM 30.33 10 0
CAVCLARION10:15 PM -2(5/-8) -8 -17 75 110 710 @ 12:35 AM 30.41 10 0
MPZMOUNT PLEASANT 20 Jan 03:15 AMSite is Offline
VTIVINTON10:15 PM -4(10/-5) -11 -12 71 70 38 @ 01:15 AM 30.46 10 0
MUTMUSCATINE10:15 PM 1(12/1) -8 -7 65 270 310 @ 02:35 AM 30.5 10 0
HPTHampton10:15 PM -4(9/-4) -13 64 0 012 @ 12:55 AM 30.41 10 0
MXOMONTICELLO MUNI10:15 PM M(0/0) M M M @ 06:00 PM 0
EBSWebster City10:15 PM -0(7/-2) -6 90 912 @ 12:55 AM 30.37 10 0
AWGWASHINGTON10:15 PM -0(10/-0) -6 60 713 @ 12:15 AM 30.47 10 0
FFLFAIRFIELD10:15 PM -0(9/-0) -6 60 810 @ 01:15 AM 30.43 10 0
SLBStorm Lake10:15 PM 1(5/1) -0 120 1314 @ 06:35 AM 30.3 10 0
EOKKEOKUK MUNI10:15 PM 5(12/-0) -0 70 513 @ 02:15 AM 30.45 10 0
TNUNEWTON MUNI10:15 PM -0(7/-2) -4 70 612 @ 03:15 AM 30.42 10 0
AXAALGONA10:15 PM -0(5/-4) -8 110 812 @ 12:15 AM 30.36 10 0